sensor_id;sensor_type;location;lat;lon;timestamp;pressure;altitude;pressure_sealevel;temperature;humidity
75775;BME280;64505;51.458;7.556;2023-08-20T00:01:14;100268.81;;;19.98;99.40
75775;BME280;64505;51.458;7.556;2023-08-20T00:03:17;100272.56;;;19.97;98.95
75775;BME280;64505;51.458;7.556;2023-08-20T00:05:19;100275.53;;;19.95;99.15
75775;BME280;64505;51.458;7.556;2023-08-20T00:07:21;100275.81;;;19.94;99.02
75775;BME280;64505;51.458;7.556;2023-08-20T00:09:22;100273.97;;;19.89;99.62
75775;BME280;64505;51.458;7.556;2023-08-20T00:11:25;100276.63;;;19.84;99.52
75775;BME280;64505;51.458;7.556;2023-08-20T00:13:26;100287.91;;;19.81;99.17
75775;BME280;64505;51.458;7.556;2023-08-20T00:15:30;100283.84;;;19.79;99.65
75775;BME280;64505;51.458;7.556;2023-08-20T00:19:34;100279.31;;;19.79;98.55
75775;BME280;64505;51.458;7.556;2023-08-20T00:21:40;100282.28;;;19.78;98.45
75775;BME280;64505;51.458;7.556;2023-08-20T00:23:42;100288.44;;;19.73;98.15
75775;BME280;64505;51.458;7.556;2023-08-20T00:25:44;100292.22;;;19.67;99.35
75775;BME280;64505;51.458;7.556;2023-08-20T00:27:46;100298.09;;;19.69;100.00
75775;BME280;64505;51.458;7.556;2023-08-20T00:29:47;100296.22;;;19.70;100.00
75775;BME280;64505;51.458;7.556;2023-08-20T00:31:49;100288.97;;;19.70;99.90
75775;BME280;64505;51.458;7.556;2023-08-20T00:33:50;100286.28;;;19.70;100.00
75775;BME280;64505;51.458;7.556;2023-08-20T00:36:06;100287.09;;;19.71;99.93
75775;BME280;64505;51.458;7.556;2023-08-20T00:38:08;100285.22;;;19.66;99.67
75775;BME280;64505;51.458;7.556;2023-08-20T00:40:10;100294.34;;;19.65;100.00
75775;BME280;64505;51.458;7.556;2023-08-20T00:42:12;100301.56;;;19.64;100.00
75775;BME280;64505;51.458;7.556;2023-08-20T00:44:15;100299.97;;;19.69;99.70
75775;BME280;64505;51.458;7.556;2023-08-20T00:46:17;100301.59;;;19.75;99.39
75775;BME280;64505;51.458;7.556;2023-08-20T00:48:18;100295.97;;;19.71;100.00
75775;BME280;64505;51.458;7.556;2023-08-20T00:50:20;100289.25;;;19.74;100.00
75775;BME280;64505;51.458;7.556;2023-08-20T00:52:22;100294.06;;;19.72;100.00
75775;BME280;64505;51.458;7.556;2023-08-20T00:54:24;100294.88;;;19.72;99.89
75775;BME280;64505;51.458;7.556;2023-08-20T00:56:26;100287.63;;;19.73;100.00
75775;BME280;64505;51.458;7.556;2023-08-20T00:58:28;100291.13;;;19.73;100.00
75775;BME280;64505;51.458;7.556;2023-08-20T01:00:29;100294.88;;;19.72;99.67
75775;BME280;64505;51.458;7.556;2023-08-20T01:02:31;100289.25;;;19.74;99.57
75775;BME280;64505;51.458;7.556;2023-08-20T01:04:33;100280.91;;;19.75;99.22
75775;BME280;64505;51.458;7.556;2023-08-20T01:06:50;100283.88;;;19.58;100.00
75775;BME280;64505;51.458;7.556;2023-08-20T01:09:01;100276.63;;;19.59;100.00
75775;BME280;64505;51.458;7.556;2023-08-20T01:11:32;100275.31;;;19.56;100.00
75775;BME280;64505;51.458;7.556;2023-08-20T01:13:35;100268.84;;;19.52;100.00
75775;BME280;64505;51.458;7.556;2023-08-20T01:15:36;100269.66;;;19.53;100.00
75775;BME280;64505;51.458;7.556;2023-08-20T01:18:02;100267.75;;;19.53;100.00
75775;BME280;64505;51.458;7.556;2023-08-20T01:20:04;100264.00;;;19.54;100.00
75775;BME280;64505;51.458;7.556;2023-08-20T01:22:40;100253.56;;;19.53;100.00
75775;BME280;64505;51.458;7.556;2023-08-20T01:27:14;100250.63;;;19.49;100.00
75775;BME280;64505;51.458;7.556;2023-08-20T01:29:19;100259.44;;;19.50;100.00
75775;BME280;64505;51.458;7.556;2023-08-20T01:31:21;100261.06;;;19.51;100.00
75775;BME280;64505;51.458;7.556;2023-08-20T01:33:23;100254.63;;;19.52;100.00
75775;BME280;64505;51.458;7.556;2023-08-20T01:35:25;100249.28;;;19.52;100.00
75775;BME280;64505;51.458;7.556;2023-08-20T01:37:28;100258.13;;;19.52;100.00
75775;BME280;64505;51.458;7.556;2023-08-20T01:39:29;100257.31;;;19.52;100.00
75775;BME280;64505;51.458;7.556;2023-08-20T01:41:31;100263.50;;;19.52;100.00
75775;BME280;64505;51.458;7.556;2023-08-20T01:43:32;100260.25;;;19.50;100.00
75775;BME280;64505;51.458;7.556;2023-08-20T01:45:34;100262.13;;;19.50;100.00
75775;BME280;64505;51.458;7.556;2023-08-20T01:47:36;100265.38;;;19.52;100.00
75775;BME280;64505;51.458;7.556;2023-08-20T01:49:38;100272.84;;;19.50;100.00
75775;BME280;64505;51.458;7.556;2023-08-20T01:51:39;100269.91;;;19.46;100.00
75775;BME280;64505;51.458;7.556;2023-08-20T01:53:41;100272.34;;;19.48;100.00
75775;BME280;64505;51.458;7.556;2023-08-20T01:55:42;100269.38;;;19.44;100.00
75775;BME280;64505;51.458;7.556;2023-08-20T01:57:44;100273.13;;;19.43;100.00
75775;BME280;64505;51.458;7.556;2023-08-20T01:59:46;100273.13;;;19.43;100.00
75775;BME280;64505;51.458;7.556;2023-08-20T02:01:48;100277.38;;;19.39;100.00
75775;BME280;64505;51.458;7.556;2023-08-20T02:03:49;100279.00;;;19.35;100.00
75775;BME280;64505;51.458;7.556;2023-08-20T02:05:51;100283.84;;;19.38;100.00
75775;BME280;64505;51.458;7.556;2023-08-20T02:07:53;100285.97;;;19.36;100.00
75775;BME280;64505;51.458;7.556;2023-08-20T02:09:55;100292.13;;;19.37;100.00
75775;BME280;64505;51.458;7.556;2023-08-20T02:11:56;100275.22;;;19.36;100.00
75775;BME280;64505;51.458;7.556;2023-08-20T02:13:58;100275.22;;;19.36;100.00
75775;BME280;64505;51.458;7.556;2023-08-20T02:16:03;100280.06;;;19.34;100.00
75775;BME280;64505;51.458;7.556;2023-08-20T02:18:05;100275.75;;;19.28;100.00
75775;BME280;64505;51.458;7.556;2023-08-20T02:20:07;100276.03;;;19.32;100.00
75775;BME280;64505;51.458;7.556;2023-08-20T02:22:11;100276.31;;;19.30;100.00
75775;BME280;64505;51.458;7.556;2023-08-20T02:24:12;100280.34;;;19.28;100.00
75775;BME280;64505;51.458;7.556;2023-08-20T02:26:14;100278.97;;;19.25;100.00
75775;BME280;64505;51.458;7.556;2023-08-20T02:28:16;100273.34;;;19.27;100.00
75775;BME280;64505;51.458;7.556;2023-08-20T02:30:17;100273.34;;;19.27;100.00
75775;BME280;64505;51.458;7.556;2023-08-20T02:32:19;100273.59;;;19.25;100.00
75775;BME280;64505;51.458;7.556;2023-08-20T02:34:20;100271.75;;;19.21;100.00
75775;BME280;64505;51.458;7.556;2023-08-20T02:36:22;100272.53;;;19.16;100.00
75775;BME280;64505;51.458;7.556;2023-08-20T02:38:23;100275.19;;;19.11;100.00
75775;BME280;64505;51.458;7.556;2023-08-20T02:40:25;100279.25;;;19.13;100.00
75775;BME280;64505;51.458;7.556;2023-08-20T02:42:26;100275.75;;;19.13;100.00
75775;BME280;64505;51.458;7.556;2023-08-20T02:44:28;100276.25;;;19.05;100.00
75775;BME280;64505;51.458;7.556;2023-08-20T02:46:29;100288.84;;;19.04;100.00
75775;BME280;64505;51.458;7.556;2023-08-20T02:48:31;100283.47;;;19.04;100.00
75775;BME280;64505;51.458;7.556;2023-08-20T02:50:33;100282.69;;;18.99;100.00
75775;BME280;64505;51.458;7.556;2023-08-20T02:52:34;100296.88;;;18.99;100.00
75775;BME280;64505;51.458;7.556;2023-08-20T02:54:36;100303.03;;;19.00;100.00
75775;BME280;64505;51.458;7.556;2023-08-20T02:56:37;100300.63;;;18.98;100.00
75775;BME280;64505;51.458;7.556;2023-08-20T02:58:39;100299.53;;;18.99;100.00
75775;BME280;64505;51.458;7.556;2023-08-20T03:00:41;100295.81;;;18.95;100.00
75775;BME280;64505;51.458;7.556;2023-08-20T03:02:43;100306.78;;;18.94;100.00
75775;BME280;64505;51.458;7.556;2023-08-20T03:04:45;100314.53;;;18.90;100.00
75775;BME280;64505;51.458;7.556;2023-08-20T03:06:46;100306.78;;;18.94;100.00
75775;BME280;64505;51.458;7.556;2023-08-20T03:08:48;100315.88;;;18.93;100.00
75775;BME280;64505;51.458;7.556;2023-08-20T03:10:49;100319.41;;;18.98;100.00
75775;BME280;64505;51.458;7.556;2023-08-20T03:12:51;100331.72;;;19.04;100.00
75775;BME280;64505;51.458;7.556;2023-08-20T03:14:52;100319.41;;;19.03;100.00
75775;BME280;64505;51.458;7.556;2023-08-20T03:16:54;100315.41;;;19.06;100.00
75775;BME280;64505;51.458;7.556;2023-08-20T03:18:55;100315.41;;;19.06;100.00
75775;BME280;64505;51.458;7.556;2023-08-20T03:20:57;100311.63;;;19.07;100.00
75775;BME280;64505;51.458;7.556;2023-08-20T03:22:58;100311.06;;;19.00;100.00
75775;BME280;64505;51.458;7.556;2023-08-20T03:25:00;100312.16;;;18.99;100.00
75775;BME280;64505;51.458;7.556;2023-08-20T03:27:01;100304.91;;;18.99;100.00
75775;BME280;64505;51.458;7.556;2023-08-20T03:29:04;100311.34;;;18.98;100.00
75775;BME280;64505;51.458;7.556;2023-08-20T03:31:05;100309.22;;;19.05;100.00
75775;BME280;64505;51.458;7.556;2023-08-20T03:33:07;100311.63;;;19.07;100.00
75775;BME280;64505;51.458;7.556;2023-08-20T03:35:08;100315.13;;;19.07;100.00
75775;BME280;64505;51.458;7.556;2023-08-20T03:37:10;100314.59;;;19.10;100.00
75775;BME280;64505;51.458;7.556;2023-08-20T03:39:11;100314.88;;;19.09;100.00
75775;BME280;64505;51.458;7.556;2023-08-20T03:41:13;100299.84;;;19.08;100.00
75775;BME280;64505;51.458;7.556;2023-08-20T03:43:15;100312.47;;;19.12;100.00
75775;BME280;64505;51.458;7.556;2023-08-20T03:45:16;100306.56;;;19.15;100.00
75775;BME280;64505;51.458;7.556;2023-08-20T03:47:18;100307.91;;;19.18;100.00
75775;BME280;64505;51.458;7.556;2023-08-20T03:49:21;100313.56;;;19.16;100.00
75775;BME280;64505;51.458;7.556;2023-08-20T03:51:23;100313.28;;;19.13;100.00
75775;BME280;64505;51.458;7.556;2023-08-20T03:53:24;100315.16;;;19.12;100.00
75775;BME280;64505;51.458;7.556;2023-08-20T03:55:27;100315.16;;;19.12;100.00
75775;BME280;64505;51.458;7.556;2023-08-20T03:57:28;100313.53;;;19.11;100.00
75775;BME280;64505;51.458;7.556;2023-08-20T03:59:30;100311.38;;;19.08;100.00
75775;BME280;64505;51.458;7.556;2023-08-20T04:01:32;100318.09;;;19.06;100.00
75775;BME280;64505;51.458;7.556;2023-08-20T04:03:33;100324.22;;;19.06;100.00
75775;BME280;64505;51.458;7.556;2023-08-20T04:05:36;100320.47;;;19.02;100.00
75775;BME280;64505;51.458;7.556;2023-08-20T04:07:38;100323.16;;;19.02;100.00
75775;BME280;64505;51.458;7.556;2023-08-20T04:09:40;100337.63;;;19.01;100.00
75775;BME280;64505;51.458;7.556;2023-08-20T04:11:42;100331.19;;;18.97;100.00
75775;BME280;64505;51.458;7.556;2023-08-20T04:13:44;100330.38;;;18.97;100.00
75775;BME280;64505;51.458;7.556;2023-08-20T04:15:46;100332.75;;;18.93;100.00
75775;BME280;64505;51.458;7.556;2023-08-20T04:17:48;100340.28;;;18.91;100.00
75775;BME280;64505;51.458;7.556;2023-08-20T04:19:50;100337.84;;;18.90;100.00
75775;BME280;64505;51.458;7.556;2023-08-20T04:21:51;100336.22;;;18.89;100.00
75775;BME280;64505;51.458;7.556;2023-08-20T04:23:53;100346.13;;;18.88;100.00
75775;BME280;64505;51.458;7.556;2023-08-20T04:25:54;100338.91;;;18.84;100.00
75775;BME280;64505;51.458;7.556;2023-08-20T04:27:56;100349.06;;;18.82;100.00
75775;BME280;64505;51.458;7.556;2023-08-20T04:29:57;100348.53;;;18.80;100.00
75775;BME280;64505;51.458;7.556;2023-08-20T04:31:59;100343.97;;;18.80;100.00
75775;BME280;64505;51.458;7.556;2023-08-20T04:34:00;100344.75;;;18.76;100.00
75775;BME280;64505;51.458;7.556;2023-08-20T04:36:02;100355.22;;;18.77;100.00
75775;BME280;64505;51.458;7.556;2023-08-20T04:38:03;100355.47;;;18.76;100.00
75775;BME280;64505;51.458;7.556;2023-08-20T04:40:06;100345.00;;;18.74;100.00
75775;BME280;64505;51.458;7.556;2023-08-20T04:42:09;100346.91;;;18.74;100.00
75775;BME280;64505;51.458;7.556;2023-08-20T04:44:10;100357.63;;;18.74;100.00
75775;BME280;64505;51.458;7.556;2023-08-20T04:46:12;100361.88;;;18.75;100.00
75775;BME280;64505;51.458;7.556;2023-08-20T04:48:13;100360.00;;;18.75;100.00
75775;BME280;64505;51.458;7.556;2023-08-20T04:50:15;100365.66;;;18.74;100.00
75775;BME280;64505;51.458;7.556;2023-08-20T04:52:19;100354.41;;;18.77;100.00
75775;BME280;64505;51.458;7.556;2023-08-20T04:54:21;100348.53;;;18.80;100.00
75775;BME280;64505;51.458;7.556;2023-08-20T04:56:23;100350.44;;;18.84;100.00
75775;BME280;64505;51.458;7.556;2023-08-20T04:58:24;100359.03;;;18.91;100.00
75775;BME280;64505;51.458;7.556;2023-08-20T05:00:26;100362.81;;;18.95;100.00
75775;BME280;64505;51.458;7.556;2023-08-20T05:02:28;100359.59;;;18.98;100.00
75775;BME280;64505;51.458;7.556;2023-08-20T05:04:31;100370.31;;;18.98;100.00
75775;BME280;64505;51.458;7.556;2023-08-20T05:06:33;100374.91;;;19.08;100.00
75775;BME280;64505;51.458;7.556;2023-08-20T05:08:37;100380.31;;;19.13;100.00
75775;BME280;64505;51.458;7.556;2023-08-20T05:10:38;100376.81;;;19.17;100.00
75775;BME280;64505;51.458;7.556;2023-08-20T05:12:41;100369.03;;;19.16;100.00
75775;BME280;64505;51.458;7.556;2023-08-20T05:14:43;100367.44;;;19.15;100.00
75775;BME280;64505;51.458;7.556;2023-08-20T05:16:44;100365.59;;;19.21;100.00
75775;BME280;64505;51.458;7.556;2023-08-20T05:18:46;100366.66;;;19.25;100.00
75775;BME280;64505;51.458;7.556;2023-08-20T05:20:47;100360.50;;;19.29;100.00
75775;BME280;64505;51.458;7.556;2023-08-20T05:22:48;100365.59;;;19.36;100.00
75775;BME280;64505;51.458;7.556;2023-08-20T05:24:50;100375.84;;;19.39;100.00
75775;BME280;64505;51.458;7.556;2023-08-20T05:27:07;100368.31;;;19.41;100.00
75775;BME280;64505;51.458;7.556;2023-08-20T05:29:09;100361.91;;;19.42;100.00
75775;BME280;64505;51.458;7.556;2023-08-20T05:31:11;100377.41;;;19.40;100.00
75775;BME280;64505;51.458;7.556;2023-08-20T05:33:12;100374.78;;;19.45;100.00
75775;BME280;64505;51.458;7.556;2023-08-20T05:35:14;100376.41;;;19.46;100.00
75775;BME280;64505;51.458;7.556;2023-08-20T05:37:15;100376.41;;;19.46;100.00
75775;BME280;64505;51.458;7.556;2023-08-20T05:39:17;100379.09;;;19.51;100.00
75775;BME280;64505;51.458;7.556;2023-08-20T05:41:18;100373.75;;;19.56;100.00
75775;BME280;64505;51.458;7.556;2023-08-20T05:43:20;100376.44;;;19.61;100.00
75775;BME280;64505;51.458;7.556;2023-08-20T05:45:21;100378.59;;;19.64;100.00
75775;BME280;64505;51.458;7.556;2023-08-20T05:47:23;100379.13;;;19.66;100.00
75775;BME280;64505;51.458;7.556;2023-08-20T05:49:24;100388.25;;;19.70;100.00
75775;BME280;64505;51.458;7.556;2023-08-20T05:51:26;100386.38;;;19.76;100.00
75775;BME280;64505;51.458;7.556;2023-08-20T05:53:27;100390.94;;;19.75;100.00
75775;BME280;64505;51.458;7.556;2023-08-20T05:55:29;100394.69;;;19.79;100.00
75775;BME280;64505;51.458;7.556;2023-08-20T05:57:30;100387.47;;;19.80;100.00
75775;BME280;64505;51.458;7.556;2023-08-20T05:59:32;100388.81;;;19.77;100.00
75775;BME280;64505;51.458;7.556;2023-08-20T06:01:33;100389.34;;;19.79;100.00
75775;BME280;64505;51.458;7.556;2023-08-20T06:03:35;100386.41;;;19.81;100.00
75775;BME280;64505;51.458;7.556;2023-08-20T06:05:36;100389.91;;;19.81;100.00
75775;BME280;64505;51.458;7.556;2023-08-20T06:07:38;100389.09;;;19.86;100.00
75775;BME280;64505;51.458;7.556;2023-08-20T06:09:40;100382.13;;;19.95;100.00
75775;BME280;64505;51.458;7.556;2023-08-20T06:11:41;100389.09;;;20.01;100.00
75775;BME280;64505;51.458;7.556;2023-08-20T06:13:43;100385.88;;;20.09;100.00
75775;BME280;64505;51.458;7.556;2023-08-20T06:15:44;100388.81;;;20.12;100.00
75775;BME280;64505;51.458;7.556;2023-08-20T06:17:46;100384.25;;;20.08;100.00
75775;BME280;64505;51.458;7.556;2023-08-20T06:19:47;100391.50;;;20.12;100.00
75775;BME280;64505;51.458;7.556;2023-08-20T06:21:49;100391.25;;;20.14;100.00
75775;BME280;64505;51.458;7.556;2023-08-20T06:23:50;100384.53;;;20.22;100.00
75775;BME280;64505;51.458;7.556;2023-08-20T06:25:52;100388.56;;;20.24;100.00
75775;BME280;64505;51.458;7.556;2023-08-20T06:27:53;100392.88;;;20.30;100.00
75775;BME280;64505;51.458;7.556;2023-08-20T06:29:55;100389.13;;;20.36;100.00
75775;BME280;64505;51.458;7.556;2023-08-20T06:31:57;100382.69;;;20.32;100.00
75775;BME280;64505;51.458;7.556;2023-08-20T06:33:58;100384.53;;;20.42;100.00
75775;BME280;64505;51.458;7.556;2023-08-20T06:36:00;100384.00;;;20.45;100.00
75775;BME280;64505;51.458;7.556;2023-08-20T06:38:01;100383.75;;;20.46;100.00
75775;BME280;64505;51.458;7.556;2023-08-20T06:40:04;100389.38;;;20.50;100.00
75775;BME280;64505;51.458;7.556;2023-08-20T06:42:05;100396.09;;;20.47;100.00
75775;BME280;64505;51.458;7.556;2023-08-20T06:44:07;100391.25;;;20.54;100.00
75775;BME280;64505;51.458;7.556;2023-08-20T06:46:08;100397.41;;;20.55;100.00
75775;BME280;64505;51.458;7.556;2023-08-20T06:48:10;100384.22;;;20.58;100.00
75775;BME280;64505;51.458;7.556;2023-08-20T06:50:15;100393.91;;;20.65;100.00
75775;BME280;64505;51.458;7.556;2023-08-20T06:52:17;100392.56;;;20.62;100.00
75775;BME280;64505;51.458;7.556;2023-08-20T06:54:19;100385.56;;;20.66;100.00
75775;BME280;64505;51.458;7.556;2023-08-20T06:56:20;100392.81;;;20.71;100.00
75775;BME280;64505;51.458;7.556;2023-08-20T06:58:22;100399.25;;;20.80;99.83
75775;BME280;64505;51.458;7.556;2023-08-20T07:00:23;100393.59;;;20.81;99.36
75775;BME280;64505;51.458;7.556;2023-08-20T07:02:25;100389.81;;;20.87;100.00
75775;BME280;64505;51.458;7.556;2023-08-20T07:04:26;100394.63;;;20.95;99.84
75775;BME280;64505;51.458;7.556;2023-08-20T07:06:28;100388.44;;;21.00;98.51
75775;BME280;64505;51.458;7.556;2023-08-20T07:08:29;100388.94;;;21.02;99.34
75775;BME280;64505;51.458;7.556;2023-08-20T07:10:31;100395.41;;;21.06;98.91
75775;BME280;64505;51.458;7.556;2023-08-20T07:12:32;100387.59;;;21.15;98.29
75775;BME280;64505;51.458;7.556;2023-08-20T07:14:34;100394.31;;;21.17;97.57
75775;BME280;64505;51.458;7.556;2023-08-20T07:16:35;100394.53;;;21.26;97.06
75775;BME280;64505;51.458;7.556;2023-08-20T07:18:37;100397.22;;;21.26;97.31
75775;BME280;64505;51.458;7.556;2023-08-20T07:20:39;100392.91;;;21.30;97.24
75775;BME280;64505;51.458;7.556;2023-08-20T07:22:40;100392.06;;;21.34;97.76
75775;BME280;64505;51.458;7.556;2023-08-20T07:24:43;100393.66;;;21.40;96.61
75775;BME280;64505;51.458;7.556;2023-08-20T07:26:45;100395.50;;;21.50;97.10
75775;BME280;64505;51.458;7.556;2023-08-20T07:28:46;100393.28;;;21.57;96.52
75775;BME280;64505;51.458;7.556;2023-08-20T07:31:01;100397.03;;;21.61;96.08
75775;BME280;64505;51.458;7.556;2023-08-20T07:33:06;100390.59;;;21.62;94.88
75775;BME280;64505;51.458;7.556;2023-08-20T07:35:08;100387.31;;;21.70;95.29
75775;BME280;64505;51.458;7.556;2023-08-20T07:37:12;100384.81;;;21.79;94.74
75775;BME280;64505;51.458;7.556;2023-08-20T07:39:14;100387.22;;;21.80;95.49
75775;BME280;64505;51.458;7.556;2023-08-20T07:41:19;100382.91;;;21.84;94.42
75775;BME280;64505;51.458;7.556;2023-08-20T07:43:21;100391.19;;;21.93;95.39
75775;BME280;64505;51.458;7.556;2023-08-20T07:45:24;100388.41;;;22.03;95.56
75775;BME280;64505;51.458;7.556;2023-08-20T07:47:26;100385.69;;;22.08;94.82
75775;BME280;64505;51.458;7.556;2023-08-20T07:49:30;100389.44;;;22.12;94.33
75775;BME280;64505;51.458;7.556;2023-08-20T07:51:31;100382.69;;;22.15;93.59
75775;BME280;64505;51.458;7.556;2023-08-20T07:53:33;100382.31;;;22.26;94.39
75775;BME280;64505;51.458;7.556;2023-08-20T07:55:35;100381.16;;;22.32;93.55
75775;BME280;64505;51.458;7.556;2023-08-20T07:57:36;100383.25;;;22.40;94.09
75775;BME280;64505;51.458;7.556;2023-08-20T07:59:38;100384.03;;;22.46;94.29
75775;BME280;64505;51.458;7.556;2023-08-20T08:01:39;100391.69;;;22.57;93.68
75775;BME280;64505;51.458;7.556;2023-08-20T08:03:41;100397.31;;;22.61;92.70
75775;BME280;64505;51.458;7.556;2023-08-20T08:05:50;100398.09;;;22.72;92.00
75775;BME280;64505;51.458;7.556;2023-08-20T08:07:51;100394.25;;;22.78;92.31
75775;BME280;64505;51.458;7.556;2023-08-20T08:09:53;100387.75;;;22.79;92.25
75775;BME280;64505;51.458;7.556;2023-08-20T08:11:54;100391.78;;;22.81;91.24
75775;BME280;64505;51.458;7.556;2023-08-20T08:13:56;100385.66;;;22.94;90.51
75775;BME280;64505;51.458;7.556;2023-08-20T08:15:57;100393.41;;;23.01;90.43
75775;BME280;64505;51.458;7.556;2023-08-20T08:17:58;100394.53;;;23.00;89.07
75775;BME280;64505;51.458;7.556;2023-08-20T08:20:00;100401.72;;;23.04;88.21
75775;BME280;64505;51.458;7.556;2023-08-20T08:22:02;100397.31;;;23.14;89.00
75775;BME280;64505;51.458;7.556;2023-08-20T08:24:04;100396.97;;;23.20;89.00
75775;BME280;64505;51.458;7.556;2023-08-20T08:26:06;100398.50;;;23.26;87.41
75775;BME280;64505;51.458;7.556;2023-08-20T08:28:07;100411.34;;;23.34;86.83
75775;BME280;64505;51.458;7.556;2023-08-20T08:30:09;100406.72;;;23.40;85.86
75775;BME280;64505;51.458;7.556;2023-08-20T08:32:11;100408.50;;;23.49;86.76
75775;BME280;64505;51.458;7.556;2023-08-20T08:34:12;100406.22;;;23.57;85.27
75775;BME280;64505;51.458;7.556;2023-08-20T08:36:15;100414.53;;;23.60;83.46
75775;BME280;64505;51.458;7.556;2023-08-20T08:38:18;100407.47;;;23.64;83.46
75775;BME280;64505;51.458;7.556;2023-08-20T08:40:19;100419.00;;;23.70;82.13
75775;BME280;64505;51.458;7.556;2023-08-20T08:42:22;100409.94;;;23.61;80.03
75775;BME280;64505;51.458;7.556;2023-08-20T08:44:23;100406.28;;;23.70;77.80
75775;BME280;64505;51.458;7.556;2023-08-20T08:46:25;100403.22;;;23.77;79.12
75775;BME280;64505;51.458;7.556;2023-08-20T08:48:27;100402.13;;;23.78;77.80
75775;BME280;64505;51.458;7.556;2023-08-20T08:50:29;100406.59;;;23.87;79.49
75775;BME280;64505;51.458;7.556;2023-08-20T08:52:32;100404.41;;;23.89;80.26
75775;BME280;64505;51.458;7.556;2023-08-20T08:54:33;100403.22;;;23.95;79.79
75775;BME280;64505;51.458;7.556;2023-08-20T08:56:35;100396.72;;;23.96;79.49
75775;BME280;64505;51.458;7.556;2023-08-20T08:58:36;100400.72;;;23.99;77.75
75775;BME280;64505;51.458;7.556;2023-08-20T09:00:38;100403.28;;;24.09;78.63
75775;BME280;64505;51.458;7.556;2023-08-20T09:02:39;100401.31;;;24.15;78.82
75775;BME280;64505;51.458;7.556;2023-08-20T09:04:42;100403.34;;;24.23;76.80
75775;BME280;64505;51.458;7.556;2023-08-20T09:06:45;100409.19;;;24.30;75.25
75775;BME280;64505;51.458;7.556;2023-08-20T09:08:47;100415.28;;;24.35;77.40
75775;BME280;64505;51.458;7.556;2023-08-20T09:10:54;100416.69;;;24.33;74.48
75775;BME280;64505;51.458;7.556;2023-08-20T09:12:56;100412.50;;;24.40;76.27
75775;BME280;64505;51.458;7.556;2023-08-20T09:14:58;100411.31;;;24.46;73.88
75775;BME280;64505;51.458;7.556;2023-08-20T09:17:01;100411.50;;;24.36;70.87
75775;BME280;64505;51.458;7.556;2023-08-20T09:19:03;100405.06;;;24.32;67.86
75775;BME280;64505;51.458;7.556;2023-08-20T09:21:08;100406.41;;;24.48;71.81
75775;BME280;64505;51.458;7.556;2023-08-20T09:23:13;100404.50;;;24.49;70.95
75775;BME280;64505;51.458;7.556;2023-08-20T09:25:15;100405.44;;;24.58;70.66
75775;BME280;64505;51.458;7.556;2023-08-20T09:27:18;100399.22;;;24.71;72.12
75775;BME280;64505;51.458;7.556;2023-08-20T09:29:19;100408.47;;;24.70;71.36
75775;BME280;64505;51.458;7.556;2023-08-20T09:31:36;100408.91;;;24.91;70.34
75775;BME280;64505;51.458;7.556;2023-08-20T09:33:51;100405.97;;;25.01;70.87
75775;BME280;64505;51.458;7.556;2023-08-20T09:35:53;100412.31;;;25.10;70.93
75775;BME280;64505;51.458;7.556;2023-08-20T09:38:02;100414.28;;;25.18;69.33
75775;BME280;64505;51.458;7.556;2023-08-20T09:40:05;100401.84;;;25.31;68.11
75775;BME280;64505;51.458;7.556;2023-08-20T09:42:08;100403.44;;;25.45;69.06
75775;BME280;64505;51.458;7.556;2023-08-20T09:44:11;100404.03;;;25.56;67.27
75775;BME280;64505;51.458;7.556;2023-08-20T09:46:15;100404.69;;;25.75;69.74
75775;BME280;64505;51.458;7.556;2023-08-20T09:48:18;100402.91;;;25.71;69.03
75775;BME280;64505;51.458;7.556;2023-08-20T09:50:22;100404.81;;;25.70;66.22
75775;BME280;64505;51.458;7.556;2023-08-20T09:52:31;100413.91;;;25.74;67.88
75775;BME280;64505;51.458;7.556;2023-08-20T09:54:48;100411.84;;;25.58;63.63
75775;BME280;64505;51.458;7.556;2023-08-20T09:56:54;100412.22;;;25.78;64.46
75775;BME280;64505;51.458;7.556;2023-08-20T09:59:00;100416.56;;;25.88;62.86
75775;BME280;64505;51.458;7.556;2023-08-20T10:01:02;100416.22;;;26.03;65.93
75775;BME280;64505;51.458;7.556;2023-08-20T10:03:04;100418.25;;;25.75;64.68
75775;BME280;64505;51.458;7.556;2023-08-20T10:05:06;100426.19;;;25.72;62.57
75775;BME280;64505;51.458;7.556;2023-08-20T10:07:10;100420.69;;;25.63;64.29
75775;BME280;64505;51.458;7.556;2023-08-20T10:09:12;100422.78;;;25.66;65.30
75775;BME280;64505;51.458;7.556;2023-08-20T10:11:14;100425.50;;;25.88;63.89
75775;BME280;64505;51.458;7.556;2023-08-20T10:13:17;100424.47;;;25.62;63.38
75775;BME280;64505;51.458;7.556;2023-08-20T10:15:18;100431.31;;;25.60;63.64
75775;BME280;64505;51.458;7.556;2023-08-20T10:17:22;100424.63;;;25.79;63.99
75775;BME280;64505;51.458;7.556;2023-08-20T10:19:24;100413.38;;;26.08;66.19
75775;BME280;64505;51.458;7.556;2023-08-20T10:21:26;100414.88;;;26.14;63.17
75775;BME280;64505;51.458;7.556;2023-08-20T10:23:28;100414.63;;;26.02;61.83
75775;BME280;64505;51.458;7.556;2023-08-20T10:25:30;100410.47;;;26.05;65.15
75775;BME280;64505;51.458;7.556;2023-08-20T10:27:33;100416.03;;;26.00;63.13
75775;BME280;64505;51.458;7.556;2023-08-20T10:29:39;100416.47;;;26.15;63.75
75775;BME280;64505;51.458;7.556;2023-08-20T10:31:46;100411.28;;;26.19;66.19
75775;BME280;64505;51.458;7.556;2023-08-20T10:33:55;100418.59;;;26.18;64.84
75775;BME280;64505;51.458;7.556;2023-08-20T10:36:07;100409.63;;;26.40;64.65
75775;BME280;64505;51.458;7.556;2023-08-20T10:38:16;100416.41;;;26.51;63.54
75775;BME280;64505;51.458;7.556;2023-08-20T10:43:01;100419.97;;;26.38;60.42
75775;BME280;64505;51.458;7.556;2023-08-20T10:45:06;100419.31;;;26.63;61.89